sensor_id;sensor_type;location;lat;lon;timestamp;pressure;altitude;pressure_sealevel;temperature;humidity
75425;BME280;64007;50.632;13.700;2023-04-03T00:01:15;98851.97;;;2.98;79.19
75425;BME280;64007;50.632;13.700;2023-04-03T00:03:41;98851.34;;;2.91;78.27
75425;BME280;64007;50.632;13.700;2023-04-03T00:06:08;98847.69;;;2.95;78.74
75425;BME280;64007;50.632;13.700;2023-04-03T00:08:35;98851.13;;;2.97;79.47
75425;BME280;64007;50.632;13.700;2023-04-03T00:11:03;98858.03;;;3.00;77.72
75425;BME280;64007;50.632;13.700;2023-04-03T00:13:28;98866.03;;;2.97;77.75
75425;BME280;64007;50.632;13.700;2023-04-03T00:15:55;98853.75;;;2.97;77.36
75425;BME280;64007;50.632;13.700;2023-04-03T00:18:20;98865.06;;;2.99;77.66
75425;BME280;64007;50.632;13.700;2023-04-03T00:20:47;98860.03;;;2.93;77.96
75425;BME280;64007;50.632;13.700;2023-04-03T00:23:12;98860.91;;;2.94;76.32
75425;BME280;64007;50.632;13.700;2023-04-03T00:25:39;98862.03;;;2.87;77.47
75425;BME280;64007;50.632;13.700;2023-04-03T00:28:05;98864.88;;;2.80;77.34
75425;BME280;64007;50.632;13.700;2023-04-03T00:30:31;98865.94;;;2.75;77.07
75425;BME280;64007;50.632;13.700;2023-04-03T00:32:57;98870.22;;;2.77;78.20
75425;BME280;64007;50.632;13.700;2023-04-03T00:35:23;98874.63;;;2.77;80.11
75425;BME280;64007;50.632;13.700;2023-04-03T00:37:53;98873.75;;;2.76;77.55
75425;BME280;64007;50.632;13.700;2023-04-03T00:40:21;98881.69;;;2.75;78.39
75425;BME280;64007;50.632;13.700;2023-04-03T00:42:49;98880.19;;;2.68;79.07
75425;BME280;64007;50.632;13.700;2023-04-03T00:45:25;98891.44;;;2.71;78.66
75425;BME280;64007;50.632;13.700;2023-04-03T00:47:51;98880.31;;;2.65;77.08
75425;BME280;64007;50.632;13.700;2023-04-03T00:50:17;98887.28;;;2.66;77.13
75425;BME280;64007;50.632;13.700;2023-04-03T00:52:43;98894.34;;;2.64;77.42
75425;BME280;64007;50.632;13.700;2023-04-03T00:55:12;98894.47;;;2.61;78.86
75425;BME280;64007;50.632;13.700;2023-04-03T00:57:40;98894.56;;;2.58;80.73
75425;BME280;64007;50.632;13.700;2023-04-03T01:00:10;98891.13;;;2.56;79.68
75425;BME280;64007;50.632;13.700;2023-04-03T01:02:38;98896.28;;;2.59;80.80
75425;BME280;64007;50.632;13.700;2023-04-03T01:05:06;98899.94;;;2.55;79.36
75425;BME280;64007;50.632;13.700;2023-04-03T01:07:33;98900.50;;;2.63;76.51
75425;BME280;64007;50.632;13.700;2023-04-03T01:10:09;98908.50;;;2.60;72.88
75425;BME280;64007;50.632;13.700;2023-04-03T01:12:35;98896.28;;;2.59;72.26
75425;BME280;64007;50.632;13.700;2023-04-03T01:15:06;98911.94;;;2.62;72.43
75425;BME280;64007;50.632;13.700;2023-04-03T01:17:51;98914.00;;;2.52;70.44
75425;BME280;64007;50.632;13.700;2023-04-03T01:25:50;98910.28;;;2.33;66.37
75425;BME280;64007;50.632;13.700;2023-04-03T01:33:35;98919.13;;;2.04;65.66
75425;BME280;64007;50.632;13.700;2023-04-03T01:36:02;98926.44;;;1.93;62.88
75425;BME280;64007;50.632;13.700;2023-04-03T01:38:27;98931.88;;;1.86;63.25
75425;BME280;64007;50.632;13.700;2023-04-03T01:40:56;98935.91;;;1.70;62.24
75425;BME280;64007;50.632;13.700;2023-04-03T01:43:22;98935.09;;;1.68;64.23
75425;BME280;64007;50.632;13.700;2023-04-03T01:45:48;98931.75;;;1.63;65.09
75425;BME280;64007;50.632;13.700;2023-04-03T01:48:18;98945.03;;;1.57;63.53
75425;BME280;64007;50.632;13.700;2023-04-03T01:50:44;98946.81;;;1.55;65.88
75425;BME280;64007;50.632;13.700;2023-04-03T01:53:10;98948.38;;;1.62;64.11
75425;BME280;64007;50.632;13.700;2023-04-03T01:55:36;98953.88;;;1.53;62.62
75425;BME280;64007;50.632;13.700;2023-04-03T01:58:01;98957.44;;;1.50;64.50
75425;BME280;64007;50.632;13.700;2023-04-03T02:00:27;98957.22;;;1.58;64.35
75425;BME280;64007;50.632;13.700;2023-04-03T02:02:53;98954.06;;;1.47;64.58
75425;BME280;64007;50.632;13.700;2023-04-03T02:05:18;98952.44;;;1.43;64.76
75425;BME280;64007;50.632;13.700;2023-04-03T02:07:44;98949.28;;;1.32;64.87
75425;BME280;64007;50.632;13.700;2023-04-03T02:10:11;98944.22;;;1.25;65.17
75425;BME280;64007;50.632;13.700;2023-04-03T02:12:36;98952.06;;;1.25;66.82
75425;BME280;64007;50.632;13.700;2023-04-03T02:15:02;98949.53;;;1.22;67.79
75425;BME280;64007;50.632;13.700;2023-04-03T02:17:28;98950.44;;;1.21;68.57
75425;BME280;64007;50.632;13.700;2023-04-03T02:19:54;98948.88;;;1.14;67.43
75425;BME280;64007;50.632;13.700;2023-04-03T02:22:19;98953.31;;;1.12;69.89
75425;BME280;64007;50.632;13.700;2023-04-03T02:24:45;98949.97;;;1.07;69.73
75425;BME280;64007;50.632;13.700;2023-04-03T02:27:11;98945.97;;;0.94;70.00
75425;BME280;64007;50.632;13.700;2023-04-03T02:29:38;98950.50;;;0.87;71.84
75425;BME280;64007;50.632;13.700;2023-04-03T02:32:03;98950.69;;;0.80;69.79
75425;BME280;64007;50.632;13.700;2023-04-03T02:34:29;98949.16;;;0.73;71.20
75425;BME280;64007;50.632;13.700;2023-04-03T02:36:55;98951.09;;;0.65;70.80
75425;BME280;64007;50.632;13.700;2023-04-03T02:39:21;98954.88;;;0.54;72.30
75425;BME280;64007;50.632;13.700;2023-04-03T02:41:47;98948.91;;;0.49;73.37
75425;BME280;64007;50.632;13.700;2023-04-03T02:44:13;98956.66;;;0.52;73.55
75425;BME280;64007;50.632;13.700;2023-04-03T02:46:38;98955.81;;;0.52;73.50
75425;BME280;64007;50.632;13.700;2023-04-03T02:49:04;98955.19;;;0.42;73.14
75425;BME280;64007;50.632;13.700;2023-04-03T02:51:30;98956.16;;;0.37;74.27
75425;BME280;64007;50.632;13.700;2023-04-03T02:53:56;98962.97;;;0.45;73.68
75425;BME280;64007;50.632;13.700;2023-04-03T02:56:21;98963.13;;;0.38;73.37
75425;BME280;64007;50.632;13.700;2023-04-03T02:58:47;98967.72;;;0.28;73.98
75425;BME280;64007;50.632;13.700;2023-04-03T03:01:13;98965.94;;;0.30;74.06
75425;BME280;64007;50.632;13.700;2023-04-03T03:03:40;98964.28;;;0.26;72.39
75425;BME280;64007;50.632;13.700;2023-04-03T03:06:09;98964.38;;;0.23;72.57
75425;BME280;64007;50.632;13.700;2023-04-03T03:08:36;98966.38;;;0.12;72.64
75425;BME280;64007;50.632;13.700;2023-04-03T03:11:02;98969.06;;;0.09;74.86
75425;BME280;64007;50.632;13.700;2023-04-03T03:13:29;98960.00;;;0.23;74.33
75425;BME280;64007;50.632;13.700;2023-04-03T03:15:55;98966.09;;;0.24;72.90
75425;BME280;64007;50.632;13.700;2023-04-03T03:18:21;98968.03;;;0.16;72.50
75425;BME280;64007;50.632;13.700;2023-04-03T03:20:51;98961.97;;;0.14;72.46
75425;BME280;64007;50.632;13.700;2023-04-03T03:23:17;98964.53;;;0.17;75.13
75425;BME280;64007;50.632;13.700;2023-04-03T03:25:43;98961.09;;;0.15;74.66
75425;BME280;64007;50.632;13.700;2023-04-03T03:28:08;98969.66;;;0.20;75.14
75425;BME280;64007;50.632;13.700;2023-04-03T03:30:34;98973.19;;;0.19;75.17
75425;BME280;64007;50.632;13.700;2023-04-03T03:33:01;98968.75;;;0.22;75.70
75425;BME280;64007;50.632;13.700;2023-04-03T03:35:26;98968.44;;;0.35;76.98
75425;BME280;64007;50.632;13.700;2023-04-03T03:37:52;98969.28;;;0.35;75.53
75425;BME280;64007;50.632;13.700;2023-04-03T03:40:17;98964.06;;;0.35;74.52
75425;BME280;64007;50.632;13.700;2023-04-03T03:42:43;98971.09;;;0.33;74.16
75425;BME280;64007;50.632;13.700;2023-04-03T03:45:10;98969.59;;;0.23;75.23
75425;BME280;64007;50.632;13.700;2023-04-03T03:47:38;98977.38;;;0.26;75.66
75425;BME280;64007;50.632;13.700;2023-04-03T03:50:05;98972.38;;;0.17;77.62
75425;BME280;64007;50.632;13.700;2023-04-03T03:52:32;98970.00;;;0.06;77.12
75425;BME280;64007;50.632;13.700;2023-04-03T03:55:00;98968.41;;;0.01;75.30
75425;BME280;64007;50.632;13.700;2023-04-03T03:57:26;98970.16;;;-0.02;75.09
75425;BME280;64007;50.632;13.700;2023-04-03T03:59:54;98977.16;;;-0.02;75.71
75425;BME280;64007;50.632;13.700;2023-04-03T04:02:20;98981.69;;;-0.10;76.40
75425;BME280;64007;50.632;13.700;2023-04-03T04:04:46;98975.50;;;-0.06;78.99
75425;BME280;64007;50.632;13.700;2023-04-03T04:07:11;98966.94;;;-0.13;77.51
75425;BME280;64007;50.632;13.700;2023-04-03T04:09:37;98971.66;;;-0.28;78.37
75425;BME280;64007;50.632;13.700;2023-04-03T04:12:03;98977.69;;;-0.25;76.72
75425;BME280;64007;50.632;13.700;2023-04-03T04:14:29;98977.88;;;-0.34;78.68
75425;BME280;64007;50.632;13.700;2023-04-03T04:16:55;98985.75;;;-0.36;77.86
75425;BME280;64007;50.632;13.700;2023-04-03T04:19:20;98990.13;;;-0.36;78.38
75425;BME280;64007;50.632;13.700;2023-04-03T04:21:46;99003.25;;;-0.39;77.98
75425;BME280;64007;50.632;13.700;2023-04-03T04:24:12;98995.59;;;-0.48;77.74
75425;BME280;64007;50.632;13.700;2023-04-03T04:26:37;99001.69;;;-0.48;78.72
75425;BME280;64007;50.632;13.700;2023-04-03T04:29:03;99011.13;;;-0.42;79.01
75425;BME280;64007;50.632;13.700;2023-04-03T04:31:29;99011.13;;;-0.42;79.84
75425;BME280;64007;50.632;13.700;2023-04-03T04:33:54;99014.78;;;-0.49;79.03
75425;BME280;64007;50.632;13.700;2023-04-03T04:36:20;99020.06;;;-0.52;81.08
75425;BME280;64007;50.632;13.700;2023-04-03T04:38:46;99023.63;;;-0.56;82.03
75425;BME280;64007;50.632;13.700;2023-04-03T04:41:12;99018.28;;;-0.50;80.53
75425;BME280;64007;50.632;13.700;2023-04-03T04:43:37;99021.91;;;-0.57;81.44
75425;BME280;64007;50.632;13.700;2023-04-03T04:46:08;99023.69;;;-0.59;81.38
75425;BME280;64007;50.632;13.700;2023-04-03T04:48:35;99029.09;;;-0.69;82.83
75425;BME280;64007;50.632;13.700;2023-04-03T04:51:01;99028.28;;;-0.71;84.53
75425;BME280;64007;50.632;13.700;2023-04-03T04:53:27;99023.00;;;-0.69;84.82
75425;BME280;64007;50.632;13.700;2023-04-03T04:55:53;99024.44;;;-0.54;82.00
75425;BME280;64007;50.632;13.700;2023-04-03T04:58:19;99035.06;;;-0.62;81.62
75425;BME280;64007;50.632;13.700;2023-04-03T05:00:45;99033.34;;;-0.63;82.68
75425;BME280;64007;50.632;13.700;2023-04-03T05:03:11;99034.19;;;-0.63;80.67
75425;BME280;64007;50.632;13.700;2023-04-03T05:05:37;99036.13;;;-0.72;80.84
75425;BME280;64007;50.632;13.700;2023-04-03T05:08:03;99036.13;;;-0.72;80.96
75425;BME280;64007;50.632;13.700;2023-04-03T05:10:29;99031.81;;;-0.73;83.76
75425;BME280;64007;50.632;13.700;2023-04-03T05:12:54;99027.47;;;-0.74;81.86
75425;BME280;64007;50.632;13.700;2023-04-03T05:15:20;99026.56;;;-0.72;83.45
75425;BME280;64007;50.632;13.700;2023-04-03T05:17:46;99036.06;;;-0.69;83.23
75425;BME280;64007;50.632;13.700;2023-04-03T05:20:12;99032.31;;;-0.56;82.08
75425;BME280;64007;50.632;13.700;2023-04-03T05:22:38;99035.84;;;-0.58;83.03
75425;BME280;64007;50.632;13.700;2023-04-03T05:25:04;99044.47;;;-0.53;82.04
75425;BME280;64007;50.632;13.700;2023-04-03T05:27:30;99045.63;;;-0.68;79.35
75425;BME280;64007;50.632;13.700;2023-04-03T05:29:56;99044.03;;;-0.75;81.60
75425;BME280;64007;50.632;13.700;2023-04-03T05:32:24;99046.59;;;-0.72;82.19
75425;BME280;64007;50.632;13.700;2023-04-03T05:34:52;99048.34;;;-0.73;81.18
75425;BME280;64007;50.632;13.700;2023-04-03T05:37:17;99050.13;;;-0.75;81.26
75425;BME280;64007;50.632;13.700;2023-04-03T05:39:43;99054.63;;;-0.84;81.89
75425;BME280;64007;50.632;13.700;2023-04-03T05:42:09;99044.84;;;-0.72;82.69
75425;BME280;64007;50.632;13.700;2023-04-03T05:44:37;99057.88;;;-0.72;82.90
75425;BME280;64007;50.632;13.700;2023-04-03T05:47:03;99056.88;;;-0.65;81.79
75425;BME280;64007;50.632;13.700;2023-04-03T05:49:29;99055.16;;;-0.66;80.64
75425;BME280;64007;50.632;13.700;2023-04-03T05:51:55;99067.38;;;-0.68;81.48
75425;BME280;64007;50.632;13.700;2023-04-03T05:54:27;99065.53;;;-0.63;84.09
75425;BME280;64007;50.632;13.700;2023-04-03T05:56:53;99064.53;;;-0.55;80.94
75425;BME280;64007;50.632;13.700;2023-04-03T05:59:19;99062.88;;;-0.59;81.04
75425;BME280;64007;50.632;13.700;2023-04-03T06:01:46;99068.13;;;-0.61;81.11
75425;BME280;64007;50.632;13.700;2023-04-03T06:04:12;99069.84;;;-0.60;80.74
75425;BME280;64007;50.632;13.700;2023-04-03T06:06:56;99079.44;;;-0.60;79.96
75425;BME280;64007;50.632;13.700;2023-04-03T06:09:25;99078.53;;;-0.59;82.14
75425;BME280;64007;50.632;13.700;2023-04-03T06:11:52;99081.03;;;-0.53;80.11
75425;BME280;64007;50.632;13.700;2023-04-03T06:14:18;99083.56;;;-0.50;79.93
75425;BME280;64007;50.632;13.700;2023-04-03T06:16:44;99081.84;;;-0.51;79.80
75425;BME280;64007;50.632;13.700;2023-04-03T06:19:11;99086.19;;;-0.50;77.14
75425;BME280;64007;50.632;13.700;2023-04-03T06:21:37;99093.97;;;-0.47;76.91
75425;BME280;64007;50.632;13.700;2023-04-03T06:24:04;99103.41;;;-0.40;76.07
75425;BME280;64007;50.632;13.700;2023-04-03T06:26:30;99094.00;;;-0.49;77.05
75425;BME280;64007;50.632;13.700;2023-04-03T06:28:56;99102.59;;;-0.44;78.39
75425;BME280;64007;50.632;13.700;2023-04-03T06:31:21;99101.59;;;-0.35;75.41
75425;BME280;64007;50.632;13.700;2023-04-03T06:33:47;99108.41;;;-0.28;75.17
75425;BME280;64007;50.632;13.700;2023-04-03T06:36:13;99115.16;;;-0.18;75.65
75425;BME280;64007;50.632;13.700;2023-04-03T06:38:39;99111.53;;;-0.11;78.60
75425;BME280;64007;50.632;13.700;2023-04-03T06:41:05;99111.47;;;-0.08;74.20
75425;BME280;64007;50.632;13.700;2023-04-03T06:43:31;99120.06;;;-0.03;74.48
75425;BME280;64007;50.632;13.700;2023-04-03T06:45:57;99119.13;;;0.03;74.09
75425;BME280;64007;50.632;13.700;2023-04-03T06:48:23;99113.69;;;0.12;74.10
75425;BME280;64007;50.632;13.700;2023-04-03T06:50:49;99114.38;;;0.20;75.01
75425;BME280;64007;50.632;13.700;2023-04-03T06:53:15;99120.84;;;0.44;76.16
75425;BME280;64007;50.632;13.700;2023-04-03T06:55:41;99118.97;;;0.49;74.96
75425;BME280;64007;50.632;13.700;2023-04-03T06:58:07;99126.78;;;0.51;73.81
75425;BME280;64007;50.632;13.700;2023-04-03T07:00:32;99125.78;;;0.56;75.85
75425;BME280;64007;50.632;13.700;2023-04-03T07:02:59;99117.09;;;0.54;72.29
75425;BME280;64007;50.632;13.700;2023-04-03T07:05:25;99129.59;;;0.43;72.83
75425;BME280;64007;50.632;13.700;2023-04-03T07:07:52;99126.13;;;0.41;71.33
75425;BME280;64007;50.632;13.700;2023-04-03T07:10:18;99130.09;;;0.59;72.06
75425;BME280;64007;50.632;13.700;2023-04-03T07:12:44;99134.59;;;0.52;72.70
75425;BME280;64007;50.632;13.700;2023-04-03T07:15:11;99137.41;;;0.82;73.43
75425;BME280;64007;50.632;13.700;2023-04-03T07:17:38;99135.53;;;0.87;72.87
75425;BME280;64007;50.632;13.700;2023-04-03T07:20:04;99130.53;;;1.12;72.99
75425;BME280;64007;50.632;13.700;2023-04-03T07:22:30;99141.53;;;1.28;71.57
75425;BME280;64007;50.632;13.700;2023-04-03T07:24:56;99132.44;;;1.41;71.39
75425;BME280;64007;50.632;13.700;2023-04-03T07:27:21;99140.63;;;1.29;67.71
75425;BME280;64007;50.632;13.700;2023-04-03T07:29:47;99141.72;;;1.18;68.00
75425;BME280;64007;50.632;13.700;2023-04-03T07:32:14;99136.03;;;1.37;68.69
75425;BME280;64007;50.632;13.700;2023-04-03T07:34:40;99135.06;;;1.41;70.60
75425;BME280;64007;50.632;13.700;2023-04-03T07:37:06;99139.22;;;1.48;70.08
75425;BME280;64007;50.632;13.700;2023-04-03T07:39:34;99142.28;;;1.65;69.86
75425;BME280;64007;50.632;13.700;2023-04-03T07:42:01;99148.31;;;1.69;69.59
75425;BME280;64007;50.632;13.700;2023-04-03T07:44:27;99145.22;;;1.85;70.96
75425;BME280;64007;50.632;13.700;2023-04-03T07:46:53;99147.34;;;2.04;68.97
75425;BME280;64007;50.632;13.700;2023-04-03T07:49:20;99145.34;;;2.12;70.70
75425;BME280;64007;50.632;13.700;2023-04-03T07:51:48;99144.34;;;2.16;69.76
75425;BME280;64007;50.632;13.700;2023-04-03T07:54:17;99145.88;;;2.23;69.93
75425;BME280;64007;50.632;13.700;2023-04-03T07:56:43;99145.69;;;2.29;69.47
75425;BME280;64007;50.632;13.700;2023-04-03T07:59:09;99146.50;;;2.61;68.11
75425;BME280;64007;50.632;13.700;2023-04-03T08:01:36;99147.56;;;2.55;65.33
75425;BME280;64007;50.632;13.700;2023-04-03T08:04:01;99152.94;;;2.50;64.03
75425;BME280;64007;50.632;13.700;2023-04-03T08:06:27;99148.13;;;2.35;62.48
75425;BME280;64007;50.632;13.700;2023-04-03T08:08:55;99147.47;;;2.29;62.20
75425;BME280;64007;50.632;13.700;2023-04-03T08:11:21;99158.72;;;2.03;62.12
75425;BME280;64007;50.632;13.700;2023-04-03T08:13:48;99158.56;;;1.76;62.55
75425;BME280;64007;50.632;13.700;2023-04-03T08:16:20;99162.00;;;1.46;62.85
75425;BME280;64007;50.632;13.700;2023-04-03T08:18:47;99156.84;;;1.43;65.65
75425;BME280;64007;50.632;13.700;2023-04-03T08:21:13;99157.63;;;1.46;65.77
75425;BME280;64007;50.632;13.700;2023-04-03T08:23:40;99151.44;;;1.49;66.38
75425;BME280;64007;50.632;13.700;2023-04-03T08:26:12;99159.13;;;1.55;66.01
75425;BME280;64007;50.632;13.700;2023-04-03T08:28:38;99163.81;;;1.76;68.32
75425;BME280;64007;50.632;13.700;2023-04-03T08:31:07;99166.59;;;1.70;63.73
75425;BME280;64007;50.632;13.700;2023-04-03T08:33:33;99159.72;;;1.66;66.56
75425;BME280;64007;50.632;13.700;2023-04-03T08:36:02;99162.56;;;1.89;66.83
75425;BME280;64007;50.632;13.700;2023-04-03T08:38:27;99152.66;;;2.01;65.11
75425;BME280;64007;50.632;13.700;2023-04-03T08:41:13;99156.91;;;2.05;64.79
75425;BME280;64007;50.632;13.700;2023-04-03T08:46:42;99166.00;;;1.92;61.63
75425;BME280;64007;50.632;13.700;2023-04-03T08:49:39;99160.69;;;1.95;63.36
75425;BME280;64007;50.632;13.700;2023-04-03T08:52:14;99163.16;;;2.01;64.07
75425;BME280;64007;50.632;13.700;2023-04-03T08:54:52;99169.94;;;2.08;62.90
75425;BME280;64007;50.632;13.700;2023-04-03T08:57:33;99165.69;;;2.04;64.71
75425;BME280;64007;50.632;13.700;2023-04-03T09:00:06;99163.88;;;2.06;63.81
75425;BME280;64007;50.632;13.700;2023-04-03T09:02:41;99166.97;;;2.20;63.45
75425;BME280;64007;50.632;13.700;2023-04-03T09:05:17;99169.88;;;2.40;64.85
75425;BME280;64007;50.632;13.700;2023-04-03T09:07:47;99165.22;;;2.50;63.40
75425;BME280;64007;50.632;13.700;2023-04-03T09:10:23;99165.84;;;2.58;61.23
75425;BME280;64007;50.632;13.700;2023-04-03T09:12:55;99167.31;;;2.67;63.18
75425;BME280;64007;50.632;13.700;2023-04-03T09:15:25;99176.47;;;2.83;63.81
75425;BME280;64007;50.632;13.700;2023-04-03T09:23:13;99178.06;;;2.59;59.47
75425;BME280;64007;50.632;13.700;2023-04-03T09:25:40;99188.22;;;2.42;59.72
75425;BME280;64007;50.632;13.700;2023-04-03T09:28:07;99191.56;;;2.47;59.33
75425;BME280;64007;50.632;13.700;2023-04-03T09:30:36;99190.09;;;2.37;57.90
75425;BME280;64007;50.632;13.700;2023-04-03T09:33:02;99188.78;;;2.51;58.98
75425;BME280;64007;50.632;13.700;2023-04-03T09:35:32;99200.66;;;2.65;59.82
75425;BME280;64007;50.632;13.700;2023-04-03T09:40:42;99193.41;;;3.01;61.85
75425;BME280;64007;50.632;13.700;2023-04-03T09:43:34;99196.28;;;3.20;56.85
75425;BME280;64007;50.632;13.700;2023-04-03T09:46:32;99211.34;;;3.14;56.84
75425;BME280;64007;50.632;13.700;2023-04-03T09:49:01;99211.09;;;3.24;56.45
75425;BME280;64007;50.632;13.700;2023-04-03T09:51:27;99213.47;;;3.03;55.94
75425;BME280;64007;50.632;13.700;2023-04-03T09:53:55;99203.91;;;3.01;57.94
75425;BME280;64007;50.632;13.700;2023-04-03T09:56:25;99199.13;;;3.13;57.50
75425;BME280;64007;50.632;13.700;2023-04-03T10:01:31;99201.78;;;3.40;55.64
75425;BME280;64007;50.632;13.700;2023-04-03T10:06:55;99207.53;;;3.51;52.44
75425;BME280;64007;50.632;13.700;2023-04-03T10:12:07;99192.22;;;3.89;54.60
75425;BME280;64007;50.632;13.700;2023-04-03T10:14:36;99200.56;;;4.01;54.84
75425;BME280;64007;50.632;13.700;2023-04-03T10:19:41;99190.38;;;3.91;52.18
75425;BME280;64007;50.632;13.700;2023-04-03T10:28:04;99204.28;;;4.19;52.62
75425;BME280;64007;50.632;13.700;2023-04-03T10:33:26;99183.38;;;5.50;55.74
75425;BME280;64007;50.632;13.700;2023-04-03T10:38:41;99183.44;;;6.30;53.28
75425;BME280;64007;50.632;13.700;2023-04-03T10:41:15;99191.34;;;6.11;48.69
75425;BME280;64007;50.632;13.700;2023-04-03T10:51:52;99171.13;;;6.68;45.37
75425;BME280;64007;50.632;13.700;2023-04-03T10:54:24;99164.84;;;6.89;47.29
75425;BME280;64007;50.632;13.700;2023-04-03T10:56:55;99170.94;;;6.91;48.63
75425;BME280;64007;50.632;13.700;2023-04-03T10:59:32;99158.84;;;6.67;46.11
75425;BME280;64007;50.632;13.700;2023-04-03T11:02:16;99153.97;;;6.20;44.89
75425;BME280;64007;50.632;13.700;2023-04-03T11:04:44;99160.94;;;6.03;47.70
75425;BME280;64007;50.632;13.700;2023-04-03T11:07:33;99159.31;;;5.98;48.84
75425;BME280;64007;50.632;13.700;2023-04-03T11:10:09;99156.28;;;5.87;48.50
75425;BME280;64007;50.632;13.700;2023-04-03T11:12:53;99152.53;;;5.93;50.05
75425;BME280;64007;50.632;13.700;2023-04-03T11:15:22;99146.34;;;5.94;50.16
75425;BME280;64007;50.632;13.700;2023-04-03T11:17:55;99143.47;;;5.98;50.25
75425;BME280;64007;50.632;13.700;2023-04-03T11:20:30;99142.53;;;6.01;50.33
75425;BME280;64007;50.632;13.700;2023-04-03T11:23:24;99148.41;;;5.86;48.25
75425;BME280;64007;50.632;13.700;2023-04-03T11:25:53;99142.75;;;5.54;48.31
75425;BME280;64007;50.632;13.700;2023-04-03T11:28:20;99134.16;;;5.49;49.89
75425;BME280;64007;50.632;13.700;2023-04-03T11:35:49;99135.94;;;6.49;50.65
75425;BME280;64007;50.632;13.700;2023-04-03T11:38:24;99132.06;;;5.98;49.84
75425;BME280;64007;50.632;13.700;2023-04-03T11:40:53;99125.72;;;5.82;48.87
75425;BME280;64007;50.632;13.700;2023-04-03T11:43:31;99128.78;;;5.73;47.20
75425;BME280;64007;50.632;13.700;2023-04-03T11:46:07;99117.16;;;5.97;48.97
75425;BME280;64007;50.632;13.700;2023-04-03T11:48:44;99118.91;;;6.73;49.32
75425;BME280;64007;50.632;13.700;2023-04-03T11:53:43;99112.16;;;6.49;46.33
75425;BME280;64007;50.632;13.700;2023-04-03T12:01:52;99118.50;;;6.82;47.47
75425;BME280;64007;50.632;13.700;2023-04-03T12:04:24;99117.13;;;6.74;48.58
75425;BME280;64007;50.632;13.700;2023-04-03T12:06:54;99120.88;;;6.51;46.98
75425;BME280;64007;50.632;13.700;2023-04-03T12:11:53;99114.78;;;6.68;48.60
75425;BME280;64007;50.632;13.700;2023-04-03T12:14:22;99119.53;;;6.78;48.10
75425;BME280;64007;50.632;13.700;2023-04-03T12:16:49;99114.16;;;6.99;47.49
75425;BME280;64007;50.632;13.700;2023-04-03T12:24:29;99105.06;;;7.04;46.27
75425;BME280;64007;50.632;13.700;2023-04-03T12:40:37;99085.13;;;7.33;45.70
75425;BME280;64007;50.632;13.700;2023-04-03T12:46:12;99093.75;;;6.47;46.06
75425;BME280;64007;50.632;13.700;2023-04-03T12:51:27;99086.78;;;6.64;45.93
75425;BME280;64007;50.632;13.700;2023-04-03T12:53:59;99082.00;;;8.26;43.99
75425;BME280;64007;50.632;13.700;2023-04-03T12:58:53;99079.81;;;8.34;43.66
75425;BME280;64007;50.632;13.700;2023-04-03T13:01:22;99086.03;;;8.00;43.56
75425;BME280;64007;50.632;13.700;2023-04-03T13:03:56;99079.50;;;7.39;45.15
75425;BME280;64007;50.632;13.700;2023-04-03T13:06:27;99084.47;;;6.75;45.38
75425;BME280;64007;50.632;13.700;2023-04-03T13:08:56;99092.59;;;6.53;46.67
75425;BME280;64007;50.632;13.700;2023-04-03T13:11:31;99082.59;;;7.13;45.87
75425;BME280;64007;50.632;13.700;2023-04-03T13:14:12;99075.50;;;8.48;45.09
75425;BME280;64007;50.632;13.700;2023-04-03T13:16:40;99076.16;;;9.29;39.81
75425;BME280;64007;50.632;13.700;2023-04-03T13:19:14;99071.22;;;9.67;38.31
75425;BME280;64007;50.632;13.700;2023-04-03T13:21:41;99063.41;;;10.23;39.45
75425;BME280;64007;50.632;13.700;2023-04-03T13:24:08;99068.28;;;10.98;37.78
75425;BME280;64007;50.632;13.700;2023-04-03T13:26:35;99057.41;;;10.48;35.17
75425;BME280;64007;50.632;13.700;2023-04-03T13:29:04;99060.25;;;9.43;37.75
75425;BME280;64007;50.632;13.700;2023-04-03T13:31:36;99069.56;;;8.91;38.32
75425;BME280;64007;50.632;13.700;2023-04-03T13:34:17;99068.16;;;8.21;40.01
75425;BME280;64007;50.632;13.700;2023-04-03T13:36:59;99071.25;;;7.63;41.71
75425;BME280;64007;50.632;13.700;2023-04-03T13:39:31;99072.81;;;7.32;42.99
75425;BME280;64007;50.632;13.700;2023-04-03T13:41:59;99081.50;;;7.00;42.40
75425;BME280;64007;50.632;13.700;2023-04-03T13:47:14;99073.03;;;6.19;43.27
75425;BME280;64007;50.632;13.700;2023-04-03T13:49:58;99061.50;;;7.96;41.76
75425;BME280;64007;50.632;13.700;2023-04-03T13:52:40;99057.03;;;8.47;40.84
75425;BME280;64007;50.632;13.700;2023-04-03T13:55:23;99053.63;;;8.12;40.73
75425;BME280;64007;50.632;13.700;2023-04-03T13:58:18;99048.13;;;7.14;41.22
75425;BME280;64007;50.632;13.700;2023-04-03T14:00:54;99053.97;;;6.86;43.61
75425;BME280;64007;50.632;13.700;2023-04-03T14:03:33;99060.16;;;6.31;42.42
75425;BME280;64007;50.632;13.700;2023-04-03T14:06:05;99048.63;;;6.14;43.52
75425;BME280;64007;50.632;13.700;2023-04-03T14:08:31;99044.59;;;6.79;43.79
75425;BME280;64007;50.632;13.700;2023-04-03T14:10:57;99036.00;;;8.44;41.76
75425;BME280;64007;50.632;13.700;2023-04-03T14:13:23;99039.00;;;9.29;37.49
75425;BME280;64007;50.632;13.700;2023-04-03T14:15:49;99028.81;;;10.37;37.91
75425;BME280;64007;50.632;13.700;2023-04-03T14:18:18;99033.09;;;10.81;34.97
75425;BME280;64007;50.632;13.700;2023-04-03T14:20:44;99036.81;;;10.23;35.33
75425;BME280;64007;50.632;13.700;2023-04-03T14:23:10;99042.78;;;9.25;36.05
75425;BME280;64007;50.632;13.700;2023-04-03T14:25:37;99044.63;;;8.47;38.46
75425;BME280;64007;50.632;13.700;2023-04-03T14:28:21;99045.69;;;7.79;41.92
75425;BME280;64007;50.632;13.700;2023-04-03T14:30:48;99063.31;;;7.45;43.72
75425;BME280;64007;50.632;13.700;2023-04-03T14:33:21;99053.81;;;7.07;42.63
75425;BME280;64007;50.632;13.700;2023-04-03T14:35:48;99058.41;;;6.67;44.19
75425;BME280;64007;50.632;13.700;2023-04-03T14:38:40;99054.75;;;7.40;43.33
75425;BME280;64007;50.632;13.700;2023-04-03T14:41:06;99055.53;;;8.89;41.52
75425;BME280;64007;50.632;13.700;2023-04-03T14:43:32;99050.78;;;9.39;40.39